createdAt,value
2018-04-12T00:01:48.330Z,100618.69
2018-04-12T00:04:54.450Z,100620.56
2018-04-12T00:08:00.090Z,100616.17
2018-04-12T00:11:05.302Z,100617.89
2018-04-12T00:14:10.233Z,100608.95
2018-04-12T00:17:15.453Z,100609.27
2018-04-12T00:20:20.663Z,100599.28
2018-04-12T00:23:26.785Z,100603.87
2018-04-12T00:26:32.400Z,100598.48
2018-04-12T00:29:38.401Z,100600.95
2018-04-12T00:32:44.637Z,100592.45
2018-04-12T00:35:49.862Z,100590.32
2018-04-12T00:38:55.999Z,100586.92
2018-04-12T00:42:01.969Z,100575.95
2018-04-12T00:45:08.072Z,100575.03
2018-04-12T00:48:13.269Z,100578.42
2018-04-12T00:51:18.971Z,100574.70
2018-04-12T00:54:24.877Z,100577.94
2018-04-12T00:57:30.081Z,100573.80
2018-04-12T01:00:35.712Z,100580.00
2018-04-12T01:03:41.914Z,100580.92
2018-04-12T01:06:47.140Z,100582.17
2018-04-12T01:09:53.250Z,100579.39
2018-04-12T01:12:58.464Z,100579.92
2018-04-12T01:16:04.573Z,100580.63
2018-04-12T01:19:09.694Z,100584.89
2018-04-12T01:22:14.893Z,100579.94
2018-04-12T01:25:20.126Z,100574.73
2018-04-12T01:28:25.293Z,100567.95
2018-04-12T01:31:30.921Z,100559.20
2018-04-12T01:34:37.049Z,100569.94
2018-04-12T01:37:42.277Z,100570.96
2018-04-12T01:40:47.497Z,100570.27
2018-04-12T01:43:52.701Z,100567.09
2018-04-12T01:46:58.436Z,100575.19
2018-04-12T01:50:04.033Z,100576.27
2018-04-12T01:53:09.286Z,100572.58
2018-04-12T01:56:15.200Z,100572.02
2018-04-12T01:59:21.351Z,100566.76
2018-04-12T02:02:27.573Z,100557.84
2018-04-12T02:05:33.426Z,100559.45
2018-04-12T02:08:38.835Z,100550.94
2018-04-12T02:11:44.461Z,100546.16
2018-04-12T02:14:50.273Z,100540.29
2018-04-12T02:17:56.406Z,100541.59
2018-04-12T02:21:02.030Z,100546.30
2018-04-12T02:24:08.154Z,100539.08
2018-04-12T02:27:13.829Z,100544.57
2018-04-12T02:30:19.288Z,100539.06
2018-04-12T02:33:24.652Z,100532.13
2018-04-12T02:36:30.401Z,100527.19
2018-04-12T02:39:35.640Z,100522.08
2018-04-12T02:42:40.557Z,100525.66
2018-04-12T02:45:46.594Z,100526.45
2018-04-12T02:48:52.658Z,100517.66
2018-04-12T02:51:58.785Z,100519.28
2018-04-12T02:55:03.779Z,100510.92
2018-04-12T02:58:09.697Z,100516.43
2018-04-12T03:01:16.581Z,100508.52
2018-04-12T03:04:22.402Z,100513.12
2018-04-12T03:07:28.545Z,100509.47
2018-04-12T03:10:33.752Z,100509.40
2018-04-12T03:13:38.966Z,100505.28
2018-04-12T03:16:44.601Z,100511.97
2018-04-12T03:19:50.006Z,100496.65
2018-04-12T03:22:55.228Z,100489.38
2018-04-12T03:26:00.281Z,100491.88
2018-04-12T03:29:05.917Z,100493.59
2018-04-12T03:32:11.137Z,100482.14
2018-04-12T03:35:16.365Z,100479.25
2018-04-12T03:38:21.609Z,100476.27
2018-04-12T03:41:26.793Z,100482.21
2018-04-12T03:44:31.665Z,100474.72
2018-04-12T03:47:37.803Z,100472.25
2018-04-12T03:50:43.149Z,100475.97
2018-04-12T03:53:48.361Z,100461.22
2018-04-12T03:56:54.277Z,100467.38
2018-04-12T03:59:59.249Z,100466.16
2018-04-12T04:03:04.478Z,100458.23
2018-04-12T04:06:10.193Z,100459.82
2018-04-12T04:09:15.527Z,100459.43
2018-04-12T04:12:20.517Z,100460.31
2018-04-12T04:15:36.542Z,100450.03
2018-04-12T04:18:52.217Z,100443.70
2018-04-12T04:21:58.784Z,100433.52
2018-04-12T04:25:03.671Z,100433.05
2018-04-12T04:28:09.286Z,100433.13
2018-04-12T04:31:14.481Z,100442.96
2018-04-12T04:34:20.118Z,100444.70
2018-04-12T04:37:25.325Z,100440.87
2018-04-12T04:40:31.172Z,100439.56
2018-04-12T04:43:36.777Z,100436.20
2018-04-12T04:46:41.998Z,100433.27
2018-04-12T04:49:47.200Z,100435.42
2018-04-12T04:52:52.617Z,100433.70
2018-04-12T04:55:58.541Z,100434.92
2018-04-12T04:59:03.764Z,100435.72
2018-04-12T05:02:10.416Z,100434.89
2018-04-12T05:05:15.108Z,100430.66
2018-04-12T05:08:20.121Z,100422.58
2018-04-12T05:11:25.361Z,100428.98
2018-04-12T05:14:31.101Z,100428.11
2018-04-12T05:17:36.313Z,100429.28
2018-04-12T05:20:41.509Z,100422.06
2018-04-12T05:23:46.734Z,100417.34
2018-04-12T05:26:52.769Z,100417.31
2018-04-12T05:29:57.742Z,100420.59
2018-04-12T05:33:02.951Z,100421.04
2018-04-12T05:36:08.169Z,100417.14
2018-04-12T05:39:14.482Z,100410.99
2018-04-12T05:42:20.623Z,100408.41
2018-04-12T05:45:26.280Z,100408.66
2018-04-12T05:48:31.459Z,100410.72
2018-04-12T05:51:37.591Z,100396.58
2018-04-12T05:54:42.517Z,100396.09
2018-04-12T05:57:48.541Z,100394.33
2018-04-12T06:00:53.741Z,100392.53
2018-04-12T06:03:58.960Z,100397.09
2018-04-12T06:07:04.441Z,100391.94
2018-04-12T06:10:09.763Z,100392.33
2018-04-12T06:13:14.961Z,100387.93
2018-04-12T06:16:20.786Z,100388.22
2018-04-12T06:19:26.897Z,100389.00
2018-04-12T06:22:32.525Z,100391.44
2018-04-12T06:25:37.729Z,100396.42
2018-04-12T06:28:43.591Z,100398.03
2018-04-12T06:31:49.692Z,100391.05
2018-04-12T06:34:55.326Z,100398.56
2018-04-12T06:38:00.535Z,100394.97
2018-04-12T06:41:06.901Z,100391.42
2018-04-12T06:44:12.100Z,100395.45
2018-04-12T06:47:17.713Z,100394.45
2018-04-12T06:50:23.602Z,100390.81
2018-04-12T06:53:29.718Z,100398.73
2018-04-12T06:56:34.655Z,100399.40
2018-04-12T06:59:40.299Z,100391.22
2018-04-12T07:02:45.522Z,100387.64
2018-04-12T07:05:51.718Z,100393.39
2018-04-12T07:08:57.105Z,100392.24
2018-04-12T07:12:02.297Z,100386.97
2018-04-12T07:15:08.231Z,100385.92
2018-04-12T07:18:13.448Z,100389.52
2018-04-12T07:21:19.165Z,100376.55
2018-04-12T07:24:24.382Z,100388.27
2018-04-12T07:27:29.373Z,100372.68
2018-04-12T07:30:34.654Z,100373.70
2018-04-12T07:33:40.393Z,100359.84
2018-04-12T07:36:46.417Z,100363.41
2018-04-12T07:39:51.813Z,100355.09
2018-04-12T07:42:57.026Z,100353.08
2018-04-12T07:46:02.670Z,100355.44
2018-04-12T07:49:08.823Z,100351.77
2018-04-12T07:52:14.453Z,100357.95
2018-04-12T07:55:20.493Z,100356.73
2018-04-12T07:58:26.609Z,100346.98
2018-04-12T08:01:32.005Z,100342.11
2018-04-12T08:04:37.218Z,100343.13
2018-04-12T08:07:43.383Z,100335.63
2018-04-12T08:10:48.321Z,100335.39
2018-04-12T08:13:53.978Z,100335.08
2018-04-12T08:16:59.889Z,100332.66
2018-04-12T08:20:04.585Z,100336.63
2018-04-12T08:23:10.500Z,100329.23
2018-04-12T08:26:15.712Z,100326.40
2018-04-12T08:29:20.940Z,100328.59
2018-04-12T08:32:26.589Z,100319.66
2018-04-12T08:35:31.839Z,100324.00
2018-04-12T08:38:38.586Z,100326.09
2018-04-12T08:41:44.206Z,100325.75
2018-04-12T08:44:50.531Z,100315.94
2018-04-12T08:47:55.759Z,100309.16
2018-04-12T08:51:00.891Z,100305.39
2018-04-12T08:54:07.029Z,100296.38
2018-04-12T08:57:11.916Z,100296.79
2018-04-12T09:00:17.053Z,100295.95
2018-04-12T09:03:22.989Z,100304.39
2018-04-12T09:06:28.239Z,100294.58
2018-04-12T09:09:33.176Z,100296.81
2018-04-12T09:12:38.390Z,100295.77
2018-04-12T09:15:44.033Z,100289.31
2018-04-12T09:18:50.375Z,100293.17
2018-04-12T09:21:56.513Z,100279.20
2018-04-12T09:25:01.728Z,100279.64
2018-04-12T09:28:07.870Z,100274.97
2018-04-12T09:31:13.097Z,100287.03
2018-04-12T09:34:18.254Z,100282.34
2018-04-12T09:37:23.480Z,100284.04
2018-04-12T09:40:29.153Z,100275.17
2018-04-12T09:43:35.106Z,100274.83
2018-04-12T09:46:40.049Z,100272.33
2018-04-12T09:49:45.990Z,100263.27
2018-04-12T09:52:51.225Z,100255.94
2018-04-12T09:55:56.472Z,100248.72
2018-04-12T09:59:01.690Z,100252.94
2018-04-12T10:02:06.682Z,100239.52
2018-04-12T10:05:17.810Z,100242.64
2018-04-12T10:08:27.696Z,100223.05
2018-04-12T10:11:33.921Z,100228.59
2018-04-12T10:14:40.061Z,100222.08
2018-04-12T10:17:45.295Z,100213.80
2018-04-12T10:20:50.523Z,100205.63
2018-04-12T10:23:55.752Z,100204.20
2018-04-12T10:27:00.965Z,100181.12
2018-04-12T10:30:07.185Z,100177.62
2018-04-12T10:33:13.338Z,100178.97
2018-04-12T10:36:19.153Z,100174.67
2018-04-12T10:39:24.399Z,100187.96
2018-04-12T10:42:29.617Z,100187.09
2018-04-12T10:45:35.142Z,100198.22
2018-04-12T10:48:40.357Z,100215.84
2018-04-12T10:51:45.402Z,100202.12
2018-04-12T10:54:50.809Z,100194.41
2018-04-12T10:57:56.870Z,100199.61
2018-04-12T11:01:02.098Z,100198.28
2018-04-12T11:04:08.102Z,100199.51
2018-04-12T11:07:13.531Z,100189.53
2018-04-12T11:10:19.278Z,100197.15
2018-04-12T11:13:24.493Z,100179.42
2018-04-12T11:16:30.529Z,100182.63
2018-04-12T11:19:36.498Z,100171.22
2018-04-12T11:22:42.554Z,100184.92
2018-04-12T11:25:48.520Z,100180.91
2018-04-12T11:28:54.670Z,100179.78
2018-04-12T11:31:59.610Z,100173.94
2018-04-12T11:35:04.524Z,100182.77
2018-04-12T11:38:10.940Z,100179.81
2018-04-12T11:41:16.161Z,100182.63
2018-04-12T11:44:22.111Z,100185.81
2018-04-12T11:47:27.110Z,100192.71
2018-04-12T11:50:33.356Z,100187.44
2018-04-12T11:53:39.185Z,100172.77
2018-04-12T11:56:45.174Z,100179.76
2018-04-12T11:59:51.484Z,100185.77
2018-04-12T12:02:56.713Z,100179.30
2018-04-12T12:06:01.659Z,100192.94
2018-04-12T12:09:08.241Z,100186.77
2018-04-12T12:12:14.119Z,100177.09
2018-04-12T12:15:20.245Z,100175.53
2018-04-12T12:18:26.402Z,100167.75
2018-04-12T12:21:32.494Z,100170.17
2018-04-12T12:24:38.432Z,100177.80
2018-04-12T12:27:44.457Z,100174.43
2018-04-12T12:30:50.505Z,100170.67
2018-04-12T12:33:56.320Z,100178.50
2018-04-12T12:37:01.545Z,100174.30
2018-04-12T12:40:06.514Z,100179.27
2018-04-12T12:43:12.474Z,100173.91
2018-04-12T12:46:18.338Z,100168.14
2018-04-12T12:49:24.471Z,100166.65
2018-04-12T12:52:30.106Z,100154.63
2018-04-12T12:55:35.821Z,100156.07
2018-04-12T12:58:41.244Z,100143.14
2018-04-12T13:01:46.482Z,100128.81
2018-04-12T13:04:52.163Z,100124.64
2018-04-12T13:07:57.374Z,100120.27
2018-04-12T13:11:02.621Z,100105.99
2018-04-12T13:14:08.953Z,100102.80
2018-04-12T13:17:14.171Z,100099.87
2018-04-12T13:20:20.392Z,100108.06
2018-04-12T13:23:26.019Z,100118.70
2018-04-12T13:26:31.771Z,100108.97
2018-04-12T13:29:36.998Z,100113.09
2018-04-12T13:32:42.721Z,100113.38
2018-04-12T13:35:48.677Z,100112.55
2018-04-12T13:38:54.099Z,100112.95
2018-04-12T13:41:59.748Z,100120.71
2018-04-12T13:45:04.421Z,100114.48
2018-04-12T13:48:12.063Z,100107.42
2018-04-12T13:51:19.149Z,100107.39
2018-04-12T13:54:24.757Z,100104.04
2018-04-12T13:57:30.007Z,100095.28
2018-04-12T14:00:35.222Z,100096.74
2018-04-12T14:03:40.441Z,100100.30
2018-04-12T14:06:45.685Z,100099.90
2018-04-12T14:09:50.621Z,100094.42
2018-04-12T14:12:57.298Z,100097.15
2018-04-12T14:16:02.520Z,100110.80
2018-04-12T14:19:07.741Z,100108.56
2018-04-12T14:22:13.470Z,100099.44
2018-04-12T14:25:19.533Z,100079.20
2018-04-12T14:28:25.694Z,100082.06
2018-04-12T14:31:31.734Z,100075.00
2018-04-12T14:34:37.669Z,100087.25
2018-04-12T14:37:42.891Z,100095.81
2018-04-12T14:40:48.482Z,100085.86
2018-04-12T14:43:53.708Z,100085.59
2018-04-12T14:46:58.938Z,100087.44
2018-04-12T14:50:04.726Z,100070.70
2018-04-12T14:53:09.969Z,100065.25
2018-04-12T14:56:15.178Z,100068.20
2018-04-12T14:59:20.412Z,100059.17
2018-04-12T15:02:26.552Z,100059.95
2018-04-12T15:05:32.600Z,100063.48
2018-04-12T15:08:38.033Z,100076.48
2018-04-12T15:11:43.669Z,100075.91
2018-04-12T15:14:48.884Z,100080.48
2018-04-12T15:17:54.112Z,100066.53
2018-04-12T15:21:00.276Z,100054.41
2018-04-12T15:24:05.990Z,100052.45
2018-04-12T15:27:11.377Z,100054.45
2018-04-12T15:30:16.794Z,100057.63
2018-04-12T15:33:22.024Z,100057.21
2018-04-12T15:36:27.754Z,100057.40
2018-04-12T15:39:32.978Z,100042.61
2018-04-12T15:42:39.731Z,100049.64
2018-04-12T15:45:45.116Z,100054.91
2018-04-12T15:48:50.560Z,100054.32
2018-04-12T15:51:55.981Z,100044.20
2018-04-12T15:55:01.905Z,100038.91
2018-04-12T15:58:08.007Z,100044.64
2018-04-12T16:01:13.601Z,100045.66
2018-04-12T16:04:18.541Z,100042.38
2018-04-12T16:07:24.040Z,100034.03
2018-04-12T16:10:28.979Z,100030.64
2018-04-12T16:13:34.852Z,100042.11
2018-04-12T16:16:40.704Z,100037.36
2018-04-12T16:19:46.060Z,100034.63
2018-04-12T16:22:51.031Z,100031.00
2018-04-12T16:25:56.009Z,100027.17
2018-04-12T16:29:01.593Z,100024.81
2018-04-12T16:32:07.907Z,100027.23
2018-04-12T16:35:13.211Z,100047.83
2018-04-12T16:38:19.127Z,100055.89
2018-04-12T16:41:24.455Z,100050.81
2018-04-12T16:44:29.428Z,100049.00
2018-04-12T16:47:34.573Z,100043.89
2018-04-12T16:50:39.293Z,100054.75
2018-04-12T16:53:45.429Z,100043.72
2018-04-12T16:56:51.123Z,100038.00
2018-04-12T16:59:57.088Z,100043.24
2018-04-12T17:03:02.201Z,100054.88
2018-04-12T17:06:07.649Z,100060.13
2018-04-12T17:09:13.025Z,100054.70
2018-04-12T17:12:19.410Z,100058.64
2018-04-12T17:15:25.066Z,100063.19
2018-04-12T17:18:30.005Z,100055.22
2018-04-12T17:21:35.243Z,100058.53
2018-04-12T17:24:40.706Z,100064.11
2018-04-12T17:27:45.856Z,100074.09
2018-04-12T17:30:51.537Z,100068.94
2018-04-12T17:33:57.447Z,100069.05
2018-04-12T17:37:03.148Z,100067.79
2018-04-12T17:40:08.907Z,100074.05
2018-04-12T17:43:14.933Z,100069.27
2018-04-12T17:46:20.170Z,100062.61
2018-04-12T17:49:25.539Z,100064.31
2018-04-12T17:52:31.624Z,100063.16
2018-04-12T17:55:36.566Z,100063.28
2018-04-12T17:58:42.511Z,100069.30
2018-04-12T18:01:48.370Z,100072.17
2018-04-12T18:04:54.165Z,100079.98
2018-04-12T18:08:00.026Z,100072.58
2018-04-12T18:11:05.392Z,100076.34
2018-04-12T18:14:11.363Z,100081.52
2018-04-12T18:17:17.284Z,100084.07
2018-04-12T18:20:22.239Z,100093.92
2018-04-12T18:23:27.457Z,100093.37
2018-04-12T18:26:32.396Z,100103.22
2018-04-12T18:29:38.360Z,100104.84
2018-04-12T18:32:43.994Z,100106.77
2018-04-12T18:35:48.933Z,100105.11
2018-04-12T18:38:54.883Z,100102.95
2018-04-12T18:41:59.819Z,100095.66
2018-04-12T18:45:05.581Z,100106.08
2018-04-12T18:48:11.434Z,100126.45
2018-04-12T18:51:17.059Z,100130.91
2018-04-12T18:54:22.977Z,100129.14
2018-04-12T18:57:28.181Z,100132.91
2018-04-12T19:00:33.618Z,100137.20
2018-04-12T19:03:38.559Z,100144.20
2018-04-12T19:06:45.125Z,100137.92
2018-04-12T19:09:50.054Z,100142.94
2018-04-12T19:12:55.593Z,100147.90
2018-04-12T19:16:00.525Z,100153.36
2018-04-12T19:19:05.426Z,100149.52
2018-04-12T19:22:10.874Z,100160.14
2018-04-12T19:25:15.813Z,100156.59
2018-04-12T19:28:21.271Z,100142.22
2018-04-12T19:31:26.190Z,100146.76
2018-04-12T19:34:31.653Z,100142.50
2018-04-12T19:37:36.577Z,100142.50
2018-04-12T19:40:41.934Z,100135.81
2018-04-12T19:43:46.864Z,100134.70
2018-04-12T19:46:52.537Z,100137.17
2018-04-12T19:49:57.471Z,100140.11
2018-04-12T19:53:02.409Z,100137.09
2018-04-12T19:56:08.161Z,100134.66
2018-04-12T19:59:13.923Z,100128.42
2018-04-12T20:02:19.959Z,100137.05
2018-04-12T20:05:24.900Z,100135.77
2018-04-12T20:08:30.938Z,100137.42
2018-04-12T20:11:35.878Z,100138.16
2018-04-12T20:14:42.018Z,100138.98
2018-04-12T20:17:46.527Z,100128.30
2018-04-12T20:20:52.094Z,100131.33
2018-04-12T20:23:57.971Z,100121.72
2018-04-12T20:27:02.908Z,100120.60
2018-04-12T20:30:07.844Z,100119.41
2018-04-12T20:33:13.627Z,100126.67
2018-04-12T20:36:18.629Z,100125.09
2018-04-12T20:39:24.025Z,100117.92
2018-04-12T20:42:28.977Z,100119.81
2018-04-12T20:45:33.912Z,100108.41
2018-04-12T20:48:38.860Z,100107.09
2018-04-12T20:51:44.329Z,100102.88
2018-04-12T20:54:49.285Z,100108.46
2018-04-12T20:57:54.754Z,100101.69
2018-04-12T21:01:00.185Z,100103.84
2018-04-12T21:04:06.544Z,100107.34
2018-04-12T21:07:12.089Z,100109.64
2018-04-12T21:10:17.455Z,100099.78
2018-04-12T21:13:22.393Z,100099.00
2018-04-12T21:16:27.509Z,100099.03
2018-04-12T21:19:32.451Z,100101.92
2018-04-12T21:22:38.097Z,100094.53
2018-04-12T21:25:43.030Z,100096.58
2018-04-12T21:28:49.082Z,100091.18
2018-04-12T21:31:54.522Z,100093.16
2018-04-12T21:35:00.404Z,100102.16
2018-04-12T21:38:05.610Z,100103.02
2018-04-12T21:41:11.457Z,100102.69
2018-04-12T21:44:17.169Z,100102.80
2018-04-12T21:47:22.805Z,100102.22
2018-04-12T21:50:27.750Z,100101.34
2018-04-12T21:53:33.081Z,100106.41
2018-04-12T21:56:38.020Z,100099.92
2018-04-12T21:59:43.370Z,100100.40
2018-04-12T22:02:49.247Z,100100.52
2018-04-12T22:05:55.076Z,100101.00
2018-04-12T22:09:00.016Z,100101.61
2018-04-12T22:12:05.760Z,100103.64
2018-04-12T22:15:10.701Z,100102.02
2018-04-12T22:18:16.045Z,100103.38
2018-04-12T22:21:20.982Z,100107.59
2018-04-12T22:24:27.550Z,100100.76
2018-04-12T22:27:34.576Z,100105.08
2018-04-12T22:30:40.126Z,100106.62
2018-04-12T22:33:45.684Z,100116.40
2018-04-12T22:36:50.661Z,100112.67
2018-04-12T22:39:56.211Z,100114.11
2018-04-12T22:43:02.057Z,100116.33
2018-04-12T22:46:07.806Z,100113.81
2018-04-12T22:49:13.439Z,100109.91
2018-04-12T22:52:19.193Z,100106.86
2018-04-12T22:55:25.025Z,100110.23
2018-04-12T22:58:30.877Z,100106.11
2018-04-12T23:01:36.116Z,100109.16
2018-04-12T23:04:41.333Z,100105.81
2018-04-12T23:07:46.549Z,100094.12
2018-04-12T23:10:51.753Z,100090.73
2018-04-12T23:13:57.902Z,100084.77
2018-04-12T23:17:03.514Z,100085.17
2018-04-12T23:20:08.728Z,100086.48
2018-04-12T23:23:14.751Z,100086.08
2018-04-12T23:26:20.421Z,100080.17
2018-04-12T23:29:25.661Z,100078.07
2018-04-12T23:32:30.860Z,100080.17
2018-04-12T23:35:36.076Z,100071.64
2018-04-12T23:38:41.295Z,100068.67
2018-04-12T23:41:47.439Z,100091.19
2018-04-12T23:44:53.077Z,100098.48
2018-04-12T23:47:59.193Z,100108.75
2018-04-12T23:51:05.222Z,100104.09
2018-04-12T23:54:11.386Z,100090.02
2018-04-12T23:57:17.326Z,100086.16
